sensor_id;sensor_type;location;lat;lon;timestamp;temperature;humidity
57636;DHT22;43465;50.728;4.160;2023-04-03T00:01:30;3.20;99.90
57636;DHT22;43465;50.728;4.160;2023-04-03T00:03:56;3.20;99.90
57636;DHT22;43465;50.728;4.160;2023-04-03T00:06:23;3.30;99.90
57636;DHT22;43465;50.728;4.160;2023-04-03T00:08:48;3.30;99.90
57636;DHT22;43465;50.728;4.160;2023-04-03T00:11:15;3.20;99.90
57636;DHT22;43465;50.728;4.160;2023-04-03T00:13:41;3.20;99.90
57636;DHT22;43465;50.728;4.160;2023-04-03T00:16:08;3.20;99.90
57636;DHT22;43465;50.728;4.160;2023-04-03T00:18:34;3.20;99.90
57636;DHT22;43465;50.728;4.160;2023-04-03T00:21:00;3.20;99.90
57636;DHT22;43465;50.728;4.160;2023-04-03T00:23:26;3.10;99.90
57636;DHT22;43465;50.728;4.160;2023-04-03T00:25:52;3.10;99.90
57636;DHT22;43465;50.728;4.160;2023-04-03T00:28:18;3.00;99.90
57636;DHT22;43465;50.728;4.160;2023-04-03T00:30:44;3.00;99.90
57636;DHT22;43465;50.728;4.160;2023-04-03T00:33:13;2.90;99.90
57636;DHT22;43465;50.728;4.160;2023-04-03T00:35:39;2.80;99.90
57636;DHT22;43465;50.728;4.160;2023-04-03T00:38:05;2.70;99.90
57636;DHT22;43465;50.728;4.160;2023-04-03T00:40:38;2.70;99.90
57636;DHT22;43465;50.728;4.160;2023-04-03T00:43:15;2.70;99.90
57636;DHT22;43465;50.728;4.160;2023-04-03T00:45:43;2.70;99.90
57636;DHT22;43465;50.728;4.160;2023-04-03T00:48:17;2.70;99.90
57636;DHT22;43465;50.728;4.160;2023-04-03T00:50:44;2.70;99.90
57636;DHT22;43465;50.728;4.160;2023-04-03T00:53:14;2.70;99.90
57636;DHT22;43465;50.728;4.160;2023-04-03T00:55:42;2.70;99.90
57636;DHT22;43465;50.728;4.160;2023-04-03T00:58:08;2.80;99.90
57636;DHT22;43465;50.728;4.160;2023-04-03T01:00:37;2.80;99.90
57636;DHT22;43465;50.728;4.160;2023-04-03T01:03:03;2.80;99.90
57636;DHT22;43465;50.728;4.160;2023-04-03T01:05:29;2.70;99.90
57636;DHT22;43465;50.728;4.160;2023-04-03T01:07:55;2.80;99.90
57636;DHT22;43465;50.728;4.160;2023-04-03T01:10:22;2.70;99.90
57636;DHT22;43465;50.728;4.160;2023-04-03T01:12:49;2.70;99.90
57636;DHT22;43465;50.728;4.160;2023-04-03T01:15:23;2.80;99.90
57636;DHT22;43465;50.728;4.160;2023-04-03T01:17:54;2.90;99.90
57636;DHT22;43465;50.728;4.160;2023-04-03T01:25:15;2.60;99.90
57636;DHT22;43465;50.728;4.160;2023-04-03T01:27:42;2.60;99.90
57636;DHT22;43465;50.728;4.160;2023-04-03T01:30:08;2.60;99.90
57636;DHT22;43465;50.728;4.160;2023-04-03T01:32:34;2.60;99.90
57636;DHT22;43465;50.728;4.160;2023-04-03T01:35:00;2.60;99.90
57636;DHT22;43465;50.728;4.160;2023-04-03T01:37:26;2.50;99.90
57636;DHT22;43465;50.728;4.160;2023-04-03T01:39:51;2.50;99.90
57636;DHT22;43465;50.728;4.160;2023-04-03T01:42:17;2.40;99.90
57636;DHT22;43465;50.728;4.160;2023-04-03T01:44:42;2.50;99.90
57636;DHT22;43465;50.728;4.160;2023-04-03T01:47:08;2.50;99.90
57636;DHT22;43465;50.728;4.160;2023-04-03T01:49:34;2.50;99.90
57636;DHT22;43465;50.728;4.160;2023-04-03T01:51:59;2.50;99.90
57636;DHT22;43465;50.728;4.160;2023-04-03T01:54:25;2.60;99.90
57636;DHT22;43465;50.728;4.160;2023-04-03T01:56:51;2.60;99.90
57636;DHT22;43465;50.728;4.160;2023-04-03T01:59:16;2.70;99.90
57636;DHT22;43465;50.728;4.160;2023-04-03T02:01:46;2.60;99.90
57636;DHT22;43465;50.728;4.160;2023-04-03T02:04:12;2.60;99.90
57636;DHT22;43465;50.728;4.160;2023-04-03T02:06:38;2.50;99.90
57636;DHT22;43465;50.728;4.160;2023-04-03T02:09:04;2.50;99.90
57636;DHT22;43465;50.728;4.160;2023-04-03T02:11:30;2.40;99.90
57636;DHT22;43465;50.728;4.160;2023-04-03T02:13:55;2.40;99.90
57636;DHT22;43465;50.728;4.160;2023-04-03T02:16:21;2.40;99.90
57636;DHT22;43465;50.728;4.160;2023-04-03T02:18:47;2.30;99.90
57636;DHT22;43465;50.728;4.160;2023-04-03T02:21:12;2.30;99.90
57636;DHT22;43465;50.728;4.160;2023-04-03T02:23:38;2.30;99.90
57636;DHT22;43465;50.728;4.160;2023-04-03T02:26:09;2.40;99.90
57636;DHT22;43465;50.728;4.160;2023-04-03T02:28:35;2.30;99.90
57636;DHT22;43465;50.728;4.160;2023-04-03T02:31:02;2.30;99.90
57636;DHT22;43465;50.728;4.160;2023-04-03T02:33:27;2.20;99.90
57636;DHT22;43465;50.728;4.160;2023-04-03T02:35:57;2.10;99.90
57636;DHT22;43465;50.728;4.160;2023-04-03T02:38:23;2.00;99.90
57636;DHT22;43465;50.728;4.160;2023-04-03T02:40:50;2.00;99.90
57636;DHT22;43465;50.728;4.160;2023-04-03T02:43:16;2.00;99.90
57636;DHT22;43465;50.728;4.160;2023-04-03T02:45:42;2.00;99.90
57636;DHT22;43465;50.728;4.160;2023-04-03T02:48:07;2.00;99.90
57636;DHT22;43465;50.728;4.160;2023-04-03T02:50:33;2.00;99.90
57636;DHT22;43465;50.728;4.160;2023-04-03T02:52:59;2.10;99.90
57636;DHT22;43465;50.728;4.160;2023-04-03T02:55:25;2.10;99.90
57636;DHT22;43465;50.728;4.160;2023-04-03T02:57:50;2.20;99.90
57636;DHT22;43465;50.728;4.160;2023-04-03T03:00:16;2.20;99.90
57636;DHT22;43465;50.728;4.160;2023-04-03T03:02:42;2.10;99.90
57636;DHT22;43465;50.728;4.160;2023-04-03T03:05:08;2.10;99.90
57636;DHT22;43465;50.728;4.160;2023-04-03T03:07:34;2.20;99.90
57636;DHT22;43465;50.728;4.160;2023-04-03T03:10:00;2.20;99.90
57636;DHT22;43465;50.728;4.160;2023-04-03T03:12:26;2.20;99.90
57636;DHT22;43465;50.728;4.160;2023-04-03T03:14:51;2.20;99.90
57636;DHT22;43465;50.728;4.160;2023-04-03T03:17:17;2.30;99.90
57636;DHT22;43465;50.728;4.160;2023-04-03T03:19:43;2.30;99.90
57636;DHT22;43465;50.728;4.160;2023-04-03T03:22:10;2.40;99.90
57636;DHT22;43465;50.728;4.160;2023-04-03T03:24:36;2.40;99.90
57636;DHT22;43465;50.728;4.160;2023-04-03T03:27:02;2.50;99.90
57636;DHT22;43465;50.728;4.160;2023-04-03T03:29:27;2.50;99.90
57636;DHT22;43465;50.728;4.160;2023-04-03T03:31:53;2.40;99.90
57636;DHT22;43465;50.728;4.160;2023-04-03T03:34:19;2.40;99.90
57636;DHT22;43465;50.728;4.160;2023-04-03T03:36:45;2.40;99.90
57636;DHT22;43465;50.728;4.160;2023-04-03T03:39:12;2.40;99.90
57636;DHT22;43465;50.728;4.160;2023-04-03T03:41:38;2.30;99.90
57636;DHT22;43465;50.728;4.160;2023-04-03T03:44:03;2.30;99.90
57636;DHT22;43465;50.728;4.160;2023-04-03T03:46:29;2.30;99.90
57636;DHT22;43465;50.728;4.160;2023-04-03T03:48:55;2.30;99.90
57636;DHT22;43465;50.728;4.160;2023-04-03T03:51:21;2.20;99.90
57636;DHT22;43465;50.728;4.160;2023-04-03T03:53:47;2.30;99.90
57636;DHT22;43465;50.728;4.160;2023-04-03T03:56:12;2.30;99.90
57636;DHT22;43465;50.728;4.160;2023-04-03T03:58:38;2.30;99.90
57636;DHT22;43465;50.728;4.160;2023-04-03T04:01:05;2.30;99.90
57636;DHT22;43465;50.728;4.160;2023-04-03T04:03:31;2.30;99.90
57636;DHT22;43465;50.728;4.160;2023-04-03T04:05:57;2.30;99.90
57636;DHT22;43465;50.728;4.160;2023-04-03T04:08:23;2.20;99.90
57636;DHT22;43465;50.728;4.160;2023-04-03T04:10:49;2.20;99.90
57636;DHT22;43465;50.728;4.160;2023-04-03T04:13:15;2.20;99.90
57636;DHT22;43465;50.728;4.160;2023-04-03T04:15:40;2.20;99.90
57636;DHT22;43465;50.728;4.160;2023-04-03T04:18:06;2.10;99.90
57636;DHT22;43465;50.728;4.160;2023-04-03T04:20:32;2.10;99.90
57636;DHT22;43465;50.728;4.160;2023-04-03T04:22:57;2.20;99.90
57636;DHT22;43465;50.728;4.160;2023-04-03T04:25:23;2.10;99.90
57636;DHT22;43465;50.728;4.160;2023-04-03T04:27:48;2.10;99.90
57636;DHT22;43465;50.728;4.160;2023-04-03T04:30:14;2.10;99.90
57636;DHT22;43465;50.728;4.160;2023-04-03T04:32:40;2.10;99.90
57636;DHT22;43465;50.728;4.160;2023-04-03T04:35:06;2.10;99.90
57636;DHT22;43465;50.728;4.160;2023-04-03T04:37:32;2.10;99.90
57636;DHT22;43465;50.728;4.160;2023-04-03T04:39:58;2.10;99.90
57636;DHT22;43465;50.728;4.160;2023-04-03T04:42:23;2.10;99.90
57636;DHT22;43465;50.728;4.160;2023-04-03T04:44:49;2.10;99.90
57636;DHT22;43465;50.728;4.160;2023-04-03T04:47:16;2.00;99.90
57636;DHT22;43465;50.728;4.160;2023-04-03T04:49:41;2.10;99.90
57636;DHT22;43465;50.728;4.160;2023-04-03T04:52:07;2.00;99.90
57636;DHT22;43465;50.728;4.160;2023-04-03T04:54:33;2.10;99.90
57636;DHT22;43465;50.728;4.160;2023-04-03T04:56:59;2.10;99.90
57636;DHT22;43465;50.728;4.160;2023-04-03T04:59:25;2.10;99.90
57636;DHT22;43465;50.728;4.160;2023-04-03T05:01:50;2.00;99.90
57636;DHT22;43465;50.728;4.160;2023-04-03T05:04:16;2.10;99.90
57636;DHT22;43465;50.728;4.160;2023-04-03T05:06:42;2.00;99.90
57636;DHT22;43465;50.728;4.160;2023-04-03T05:09:07;2.00;99.90
57636;DHT22;43465;50.728;4.160;2023-04-03T05:11:34;2.00;99.90
57636;DHT22;43465;50.728;4.160;2023-04-03T05:14:00;2.00;99.90
57636;DHT22;43465;50.728;4.160;2023-04-03T05:16:25;2.00;99.90
57636;DHT22;43465;50.728;4.160;2023-04-03T05:18:51;2.00;99.90
57636;DHT22;43465;50.728;4.160;2023-04-03T05:21:17;2.00;99.90
57636;DHT22;43465;50.728;4.160;2023-04-03T05:23:43;2.00;99.90
57636;DHT22;43465;50.728;4.160;2023-04-03T05:26:09;2.00;99.90
57636;DHT22;43465;50.728;4.160;2023-04-03T05:28:35;2.00;99.90
57636;DHT22;43465;50.728;4.160;2023-04-03T05:31:01;2.00;99.90
57636;DHT22;43465;50.728;4.160;2023-04-03T05:33:27;2.00;99.90
57636;DHT22;43465;50.728;4.160;2023-04-03T05:35:54;2.00;99.90
57636;DHT22;43465;50.728;4.160;2023-04-03T05:38:20;2.00;99.90
57636;DHT22;43465;50.728;4.160;2023-04-03T05:40:46;2.10;99.90
57636;DHT22;43465;50.728;4.160;2023-04-03T05:43:12;2.10;99.90
57636;DHT22;43465;50.728;4.160;2023-04-03T05:45:38;2.10;99.90
57636;DHT22;43465;50.728;4.160;2023-04-03T05:48:03;2.20;99.90
57636;DHT22;43465;50.728;4.160;2023-04-03T05:50:29;2.30;99.90
57636;DHT22;43465;50.728;4.160;2023-04-03T05:52:57;2.20;99.90
57636;DHT22;43465;50.728;4.160;2023-04-03T05:55:24;2.30;99.90
57636;DHT22;43465;50.728;4.160;2023-04-03T05:57:49;2.40;99.90
57636;DHT22;43465;50.728;4.160;2023-04-03T06:00:16;2.50;99.90
57636;DHT22;43465;50.728;4.160;2023-04-03T06:02:42;2.60;99.90
57636;DHT22;43465;50.728;4.160;2023-04-03T06:05:09;2.70;99.90
57636;DHT22;43465;50.728;4.160;2023-04-03T06:07:34;2.70;99.90
57636;DHT22;43465;50.728;4.160;2023-04-03T06:10:01;2.70;99.90
57636;DHT22;43465;50.728;4.160;2023-04-03T06:12:27;2.80;99.90
57636;DHT22;43465;50.728;4.160;2023-04-03T06:14:56;2.90;99.90
57636;DHT22;43465;50.728;4.160;2023-04-03T06:17:21;2.90;99.90
57636;DHT22;43465;50.728;4.160;2023-04-03T06:19:47;3.00;99.90
57636;DHT22;43465;50.728;4.160;2023-04-03T06:22:14;3.00;99.90
57636;DHT22;43465;50.728;4.160;2023-04-03T06:24:40;3.10;99.90
57636;DHT22;43465;50.728;4.160;2023-04-03T06:27:05;3.20;99.90
57636;DHT22;43465;50.728;4.160;2023-04-03T06:29:31;3.30;99.90
57636;DHT22;43465;50.728;4.160;2023-04-03T06:31:57;3.30;99.90
57636;DHT22;43465;50.728;4.160;2023-04-03T06:34:23;3.40;99.90
57636;DHT22;43465;50.728;4.160;2023-04-03T06:36:48;3.50;99.90
57636;DHT22;43465;50.728;4.160;2023-04-03T06:39:20;3.60;99.90
57636;DHT22;43465;50.728;4.160;2023-04-03T06:41:48;3.80;99.90
57636;DHT22;43465;50.728;4.160;2023-04-03T06:44:13;3.70;99.90
57636;DHT22;43465;50.728;4.160;2023-04-03T06:46:42;3.70;99.90
57636;DHT22;43465;50.728;4.160;2023-04-03T06:49:08;3.70;99.90
57636;DHT22;43465;50.728;4.160;2023-04-03T06:51:34;3.80;99.90
57636;DHT22;43465;50.728;4.160;2023-04-03T06:54:01;3.90;99.90
57636;DHT22;43465;50.728;4.160;2023-04-03T06:56:27;4.00;99.90
57636;DHT22;43465;50.728;4.160;2023-04-03T06:58:54;4.00;99.90
57636;DHT22;43465;50.728;4.160;2023-04-03T07:01:20;4.10;99.90
57636;DHT22;43465;50.728;4.160;2023-04-03T07:03:47;4.20;99.90
57636;DHT22;43465;50.728;4.160;2023-04-03T07:06:15;4.40;99.90
57636;DHT22;43465;50.728;4.160;2023-04-03T07:08:41;4.60;99.90
57636;DHT22;43465;50.728;4.160;2023-04-03T07:11:08;4.70;99.90
57636;DHT22;43465;50.728;4.160;2023-04-03T07:13:34;4.80;99.90
57636;DHT22;43465;50.728;4.160;2023-04-03T07:16:00;5.00;99.90
57636;DHT22;43465;50.728;4.160;2023-04-03T07:18:26;5.20;99.90
57636;DHT22;43465;50.728;4.160;2023-04-03T07:20:52;5.20;99.90
57636;DHT22;43465;50.728;4.160;2023-04-03T07:23:18;5.30;99.90
57636;DHT22;43465;50.728;4.160;2023-04-03T07:25:45;5.40;99.90
57636;DHT22;43465;50.728;4.160;2023-04-03T07:28:12;5.60;99.90
57636;DHT22;43465;50.728;4.160;2023-04-03T07:31:10;5.60;99.90
57636;DHT22;43465;50.728;4.160;2023-04-03T07:33:37;5.70;99.90
57636;DHT22;43465;50.728;4.160;2023-04-03T07:36:04;5.80;99.90
57636;DHT22;43465;50.728;4.160;2023-04-03T07:38:30;5.90;99.90
57636;DHT22;43465;50.728;4.160;2023-04-03T07:40:56;6.00;99.90
57636;DHT22;43465;50.728;4.160;2023-04-03T07:43:22;6.10;99.90
57636;DHT22;43465;50.728;4.160;2023-04-03T07:45:50;6.00;99.90
57636;DHT22;43465;50.728;4.160;2023-04-03T07:48:21;6.20;99.90
57636;DHT22;43465;50.728;4.160;2023-04-03T07:50:47;6.30;99.90
57636;DHT22;43465;50.728;4.160;2023-04-03T07:53:13;6.30;99.90
57636;DHT22;43465;50.728;4.160;2023-04-03T07:55:39;6.40;99.90
57636;DHT22;43465;50.728;4.160;2023-04-03T07:58:14;6.50;99.90
57636;DHT22;43465;50.728;4.160;2023-04-03T08:00:40;6.70;99.90
57636;DHT22;43465;50.728;4.160;2023-04-03T08:03:07;6.80;99.90
57636;DHT22;43465;50.728;4.160;2023-04-03T08:05:43;6.90;99.90
57636;DHT22;43465;50.728;4.160;2023-04-03T08:08:10;7.00;99.90
57636;DHT22;43465;50.728;4.160;2023-04-03T08:10:37;7.20;99.90
57636;DHT22;43465;50.728;4.160;2023-04-03T08:13:03;7.10;99.90
57636;DHT22;43465;50.728;4.160;2023-04-03T08:15:30;7.10;99.90
57636;DHT22;43465;50.728;4.160;2023-04-03T08:17:56;7.00;99.90
57636;DHT22;43465;50.728;4.160;2023-04-03T08:20:22;7.00;99.90
57636;DHT22;43465;50.728;4.160;2023-04-03T08:22:47;7.00;99.90
57636;DHT22;43465;50.728;4.160;2023-04-03T08:25:13;7.20;99.90
57636;DHT22;43465;50.728;4.160;2023-04-03T08:27:39;7.30;99.90
57636;DHT22;43465;50.728;4.160;2023-04-03T08:30:05;7.50;99.90
57636;DHT22;43465;50.728;4.160;2023-04-03T08:32:33;7.60;99.90
57636;DHT22;43465;50.728;4.160;2023-04-03T08:34:59;7.60;99.90
57636;DHT22;43465;50.728;4.160;2023-04-03T08:37:25;7.50;99.90
57636;DHT22;43465;50.728;4.160;2023-04-03T08:39:52;7.50;99.90
57636;DHT22;43465;50.728;4.160;2023-04-03T08:45:12;7.50;99.90
57636;DHT22;43465;50.728;4.160;2023-04-03T08:47:52;7.70;99.90
57636;DHT22;43465;50.728;4.160;2023-04-03T08:50:29;7.70;99.90
57636;DHT22;43465;50.728;4.160;2023-04-03T08:52:59;8.00;99.90
57636;DHT22;43465;50.728;4.160;2023-04-03T08:55:31;8.00;99.90
57636;DHT22;43465;50.728;4.160;2023-04-03T08:58:09;8.00;99.90
57636;DHT22;43465;50.728;4.160;2023-04-03T09:00:51;8.10;99.90
57636;DHT22;43465;50.728;4.160;2023-04-03T09:03:19;8.20;99.90
57636;DHT22;43465;50.728;4.160;2023-04-03T09:06:05;8.20;99.90
57636;DHT22;43465;50.728;4.160;2023-04-03T09:16:58;8.70;99.90
57636;DHT22;43465;50.728;4.160;2023-04-03T09:21:58;8.80;99.90
57636;DHT22;43465;50.728;4.160;2023-04-03T09:24:24;9.00;99.90
57636;DHT22;43465;50.728;4.160;2023-04-03T09:27:01;9.00;99.90
57636;DHT22;43465;50.728;4.160;2023-04-03T09:29:28;8.90;99.90
57636;DHT22;43465;50.728;4.160;2023-04-03T09:32:02;9.00;99.90
57636;DHT22;43465;50.728;4.160;2023-04-03T09:34:38;9.10;99.90
57636;DHT22;43465;50.728;4.160;2023-04-03T09:37:07;9.00;99.90
57636;DHT22;43465;50.728;4.160;2023-04-03T09:39:53;9.10;99.90
57636;DHT22;43465;50.728;4.160;2023-04-03T09:42:22;9.20;99.90
57636;DHT22;43465;50.728;4.160;2023-04-03T09:44:55;9.10;99.90
57636;DHT22;43465;50.728;4.160;2023-04-03T09:47:35;9.10;99.90
57636;DHT22;43465;50.728;4.160;2023-04-03T09:52:45;9.10;99.90
57636;DHT22;43465;50.728;4.160;2023-04-03T09:57:45;9.40;99.90
57636;DHT22;43465;50.728;4.160;2023-04-03T10:00:26;9.40;99.90
57636;DHT22;43465;50.728;4.160;2023-04-03T10:02:57;9.40;99.90
57636;DHT22;43465;50.728;4.160;2023-04-03T10:07:51;9.50;99.90
57636;DHT22;43465;50.728;4.160;2023-04-03T10:10:19;9.50;99.90
57636;DHT22;43465;50.728;4.160;2023-04-03T10:12:46;9.60;99.90
57636;DHT22;43465;50.728;4.160;2023-04-03T10:15:18;9.70;99.90
57636;DHT22;43465;50.728;4.160;2023-04-03T10:20:41;9.80;99.90
57636;DHT22;43465;50.728;4.160;2023-04-03T10:23:24;9.90;99.90
57636;DHT22;43465;50.728;4.160;2023-04-03T10:39:24;10.30;99.90
57636;DHT22;43465;50.728;4.160;2023-04-03T10:42:03;10.50;99.90
57636;DHT22;43465;50.728;4.160;2023-04-03T10:47:27;10.60;99.90
57636;DHT22;43465;50.728;4.160;2023-04-03T10:52:37;10.30;99.90
57636;DHT22;43465;50.728;4.160;2023-04-03T10:57:50;10.40;99.90
57636;DHT22;43465;50.728;4.160;2023-04-03T11:00:20;10.60;99.90
57636;DHT22;43465;50.728;4.160;2023-04-03T11:02:58;10.60;99.90
57636;DHT22;43465;50.728;4.160;2023-04-03T11:05:32;10.60;99.90
57636;DHT22;43465;50.728;4.160;2023-04-03T11:08:04;10.60;99.90
57636;DHT22;43465;50.728;4.160;2023-04-03T11:13:11;10.90;99.90
57636;DHT22;43465;50.728;4.160;2023-04-03T11:15:38;11.10;99.90
57636;DHT22;43465;50.728;4.160;2023-04-03T11:18:52;11.20;99.90
57636;DHT22;43465;50.728;4.160;2023-04-03T11:23:35;11.50;99.90
57636;DHT22;43465;50.728;4.160;2023-04-03T11:26:19;11.50;99.90
57636;DHT22;43465;50.728;4.160;2023-04-03T11:28:52;11.60;99.90
57636;DHT22;43465;50.728;4.160;2023-04-03T11:37:05;12.00;99.90
57636;DHT22;43465;50.728;4.160;2023-04-03T11:39:38;12.00;99.80
57636;DHT22;43465;50.728;4.160;2023-04-03T11:45:57;11.90;98.30
57636;DHT22;43465;50.728;4.160;2023-04-03T11:50:55;11.90;96.00
57636;DHT22;43465;50.728;4.160;2023-04-03T11:53:38;11.80;98.60
57636;DHT22;43465;50.728;4.160;2023-04-03T12:04:11;11.80;96.60
57636;DHT22;43465;50.728;4.160;2023-04-03T12:11:48;11.70;97.00
57636;DHT22;43465;50.728;4.160;2023-04-03T12:14:16;11.70;96.10
57636;DHT22;43465;50.728;4.160;2023-04-03T12:16:46;11.70;98.00
57636;DHT22;43465;50.728;4.160;2023-04-03T12:24:44;11.90;97.10
57636;DHT22;43465;50.728;4.160;2023-04-03T12:35:55;12.20;92.50
57636;DHT22;43465;50.728;4.160;2023-04-03T12:41:18;12.70;93.50
57636;DHT22;43465;50.728;4.160;2023-04-03T12:46:19;12.70;91.50
57636;DHT22;43465;50.728;4.160;2023-04-03T12:48:54;12.80;93.60
57636;DHT22;43465;50.728;4.160;2023-04-03T12:51:34;12.70;91.50
57636;DHT22;43465;50.728;4.160;2023-04-03T12:54:13;12.70;91.80
57636;DHT22;43465;50.728;4.160;2023-04-03T12:56:40;12.70;90.80
57636;DHT22;43465;50.728;4.160;2023-04-03T12:59:22;12.50;87.40
57636;DHT22;43465;50.728;4.160;2023-04-03T13:02:01;12.50;87.70
57636;DHT22;43465;50.728;4.160;2023-04-03T13:04:28;12.50;86.90
57636;DHT22;43465;50.728;4.160;2023-04-03T13:06:55;12.60;87.80
57636;DHT22;43465;50.728;4.160;2023-04-03T13:09:27;12.60;90.20
57636;DHT22;43465;50.728;4.160;2023-04-03T13:12:02;12.70;90.10
57636;DHT22;43465;50.728;4.160;2023-04-03T13:14:30;12.60;87.90
57636;DHT22;43465;50.728;4.160;2023-04-03T13:17:06;12.50;87.80
57636;DHT22;43465;50.728;4.160;2023-04-03T13:19:36;12.90;85.10
57636;DHT22;43465;50.728;4.160;2023-04-03T13:22:06;12.90;90.00
57636;DHT22;43465;50.728;4.160;2023-04-03T13:24:35;12.90;85.70
57636;DHT22;43465;50.728;4.160;2023-04-03T13:27:02;12.90;87.90
57636;DHT22;43465;50.728;4.160;2023-04-03T13:29:34;12.90;84.70
57636;DHT22;43465;50.728;4.160;2023-04-03T13:32:02;12.90;87.00
57636;DHT22;43465;50.728;4.160;2023-04-03T13:34:38;12.90;85.20
57636;DHT22;43465;50.728;4.160;2023-04-03T13:37:06;12.90;76.30
57636;DHT22;43465;50.728;4.160;2023-04-03T13:39:37;13.10;80.30
57636;DHT22;43465;50.728;4.160;2023-04-03T13:42:24;13.90;76.80
57636;DHT22;43465;50.728;4.160;2023-04-03T13:45:10;15.00;68.70
57636;DHT22;43465;50.728;4.160;2023-04-03T13:47:41;15.80;71.30
57636;DHT22;43465;50.728;4.160;2023-04-03T14:00:49;19.10;52.90
57636;DHT22;43465;50.728;4.160;2023-04-03T14:03:41;19.40;51.30
57636;DHT22;43465;50.728;4.160;2023-04-03T14:06:11;19.90;50.70
57636;DHT22;43465;50.728;4.160;2023-04-03T14:08:37;20.50;52.50
57636;DHT22;43465;50.728;4.160;2023-04-03T14:11:03;20.90;46.60
57636;DHT22;43465;50.728;4.160;2023-04-03T14:13:32;21.10;43.40
57636;DHT22;43465;50.728;4.160;2023-04-03T14:15:57;20.80;43.90
57636;DHT22;43465;50.728;4.160;2023-04-03T14:18:23;20.60;46.10
57636;DHT22;43465;50.728;4.160;2023-04-03T14:20:49;20.40;43.30
57636;DHT22;43465;50.728;4.160;2023-04-03T14:23:15;20.70;44.60
57636;DHT22;43465;50.728;4.160;2023-04-03T14:25:42;21.00;46.30
57636;DHT22;43465;50.728;4.160;2023-04-03T14:28:17;21.30;46.50
57636;DHT22;43465;50.728;4.160;2023-04-03T14:30:45;21.40;45.70
57636;DHT22;43465;50.728;4.160;2023-04-03T14:33:15;21.50;44.50
57636;DHT22;43465;50.728;4.160;2023-04-03T14:35:42;21.30;42.50
57636;DHT22;43465;50.728;4.160;2023-04-03T14:38:27;21.00;44.60
57636;DHT22;43465;50.728;4.160;2023-04-03T14:40:54;20.80;43.60
57636;DHT22;43465;50.728;4.160;2023-04-03T14:43:20;20.50;42.50
57636;DHT22;43465;50.728;4.160;2023-04-03T14:45:47;19.80;44.20
57636;DHT22;43465;50.728;4.160;2023-04-03T14:48:23;19.90;44.50
57636;DHT22;43465;50.728;4.160;2023-04-03T14:50:50;19.80;43.70
57636;DHT22;43465;50.728;4.160;2023-04-03T14:53:16;19.50;44.30
57636;DHT22;43465;50.728;4.160;2023-04-03T14:55:47;19.20;46.30
57636;DHT22;43465;50.728;4.160;2023-04-03T14:58:18;19.60;44.70
57636;DHT22;43465;50.728;4.160;2023-04-03T15:00:44;19.60;47.30
57636;DHT22;43465;50.728;4.160;2023-04-03T15:03:20;19.70;46.00
57636;DHT22;43465;50.728;4.160;2023-04-03T15:05:47;19.90;46.70
57636;DHT22;43465;50.728;4.160;2023-04-03T15:08:25;19.70;45.90
57636;DHT22;43465;50.728;4.160;2023-04-03T15:10:52;19.00;46.90
57636;DHT22;43465;50.728;4.160;2023-04-03T15:13:22;18.50;44.30
57636;DHT22;43465;50.728;4.160;2023-04-03T15:15:49;18.10;47.60
57636;DHT22;43465;50.728;4.160;2023-04-03T15:18:19;18.00;47.20
57636;DHT22;43465;50.728;4.160;2023-04-03T15:20:45;17.80;46.80
57636;DHT22;43465;50.728;4.160;2023-04-03T15:23:15;17.40;46.20
57636;DHT22;43465;50.728;4.160;2023-04-03T15:25:46;17.20;46.30
57636;DHT22;43465;50.728;4.160;2023-04-03T15:28:37;17.00;46.80
57636;DHT22;43465;50.728;4.160;2023-04-03T15:31:04;17.00;48.00
57636;DHT22;43465;50.728;4.160;2023-04-03T15:33:31;17.30;47.10
57636;DHT22;43465;50.728;4.160;2023-04-03T15:35:56;17.50;47.40
57636;DHT22;43465;50.728;4.160;2023-04-03T15:38:22;17.70;48.10
57636;DHT22;43465;50.728;4.160;2023-04-03T15:40:48;17.80;46.10
57636;DHT22;43465;50.728;4.160;2023-04-03T15:43:14;17.70;46.60
57636;DHT22;43465;50.728;4.160;2023-04-03T15:45:42;17.30;46.60
57636;DHT22;43465;50.728;4.160;2023-04-03T15:48:08;16.80;47.40
57636;DHT22;43465;50.728;4.160;2023-04-03T15:50:35;16.40;48.50
57636;DHT22;43465;50.728;4.160;2023-04-03T15:53:01;16.30;47.60
57636;DHT22;43465;50.728;4.160;2023-04-03T15:55:28;16.10;49.20
57636;DHT22;43465;50.728;4.160;2023-04-03T15:57:55;16.00;48.60
57636;DHT22;43465;50.728;4.160;2023-04-03T16:00:22;15.90;48.50
57636;DHT22;43465;50.728;4.160;2023-04-03T16:02:50;15.70;49.70
57636;DHT22;43465;50.728;4.160;2023-04-03T16:05:19;15.80;49.30
57636;DHT22;43465;50.728;4.160;2023-04-03T16:07:45;15.70;50.20
57636;DHT22;43465;50.728;4.160;2023-04-03T16:10:13;15.70;50.10
57636;DHT22;43465;50.728;4.160;2023-04-03T16:12:40;16.00;51.30
57636;DHT22;43465;50.728;4.160;2023-04-03T16:15:07;16.10;50.00
57636;DHT22;43465;50.728;4.160;2023-04-03T16:17:34;16.00;52.70
57636;DHT22;43465;50.728;4.160;2023-04-03T16:20:00;15.90;52.30
57636;DHT22;43465;50.728;4.160;2023-04-03T16:22:28;16.00;53.40
57636;DHT22;43465;50.728;4.160;2023-04-03T16:24:54;15.80;50.80
57636;DHT22;43465;50.728;4.160;2023-04-03T16:27:20;15.60;52.40
57636;DHT22;43465;50.728;4.160;2023-04-03T16:29:46;15.40;51.90
57636;DHT22;43465;50.728;4.160;2023-04-03T16:32:12;15.10;53.60
57636;DHT22;43465;50.728;4.160;2023-04-03T16:34:38;15.00;52.70
57636;DHT22;43465;50.728;4.160;2023-04-03T16:37:07;14.80;51.60
57636;DHT22;43465;50.728;4.160;2023-04-03T16:39:35;14.80;51.90
57636;DHT22;43465;50.728;4.160;2023-04-03T16:42:04;15.10;53.00
57636;DHT22;43465;50.728;4.160;2023-04-03T16:44:33;15.70;53.20
57636;DHT22;43465;50.728;4.160;2023-04-03T16:46:58;16.10;53.40
57636;DHT22;43465;50.728;4.160;2023-04-03T16:49:27;16.10;52.00
57636;DHT22;43465;50.728;4.160;2023-04-03T16:51:58;16.10;51.00
57636;DHT22;43465;50.728;4.160;2023-04-03T16:54:24;15.60;52.80
57636;DHT22;43465;50.728;4.160;2023-04-03T16:56:50;14.80;54.00
57636;DHT22;43465;50.728;4.160;2023-04-03T16:59:16;14.10;57.60
57636;DHT22;43465;50.728;4.160;2023-04-03T17:01:42;13.60;56.20
57636;DHT22;43465;50.728;4.160;2023-04-03T17:04:07;13.10;57.50
57636;DHT22;43465;50.728;4.160;2023-04-03T17:06:33;12.90;58.40
57636;DHT22;43465;50.728;4.160;2023-04-03T17:08:59;12.70;60.00
57636;DHT22;43465;50.728;4.160;2023-04-03T17:11:28;12.40;59.30
57636;DHT22;43465;50.728;4.160;2023-04-03T17:13:54;12.20;62.30
57636;DHT22;43465;50.728;4.160;2023-04-03T17:16:20;12.00;61.00
57636;DHT22;43465;50.728;4.160;2023-04-03T17:18:47;11.70;62.60
57636;DHT22;43465;50.728;4.160;2023-04-03T17:21:13;11.40;63.80
57636;DHT22;43465;50.728;4.160;2023-04-03T17:23:41;11.10;64.80
57636;DHT22;43465;50.728;4.160;2023-04-03T17:26:08;10.90;66.60
57636;DHT22;43465;50.728;4.160;2023-04-03T17:28:33;10.80;67.00
57636;DHT22;43465;50.728;4.160;2023-04-03T17:31:01;10.70;68.20
57636;DHT22;43465;50.728;4.160;2023-04-03T17:33:27;10.50;68.90
57636;DHT22;43465;50.728;4.160;2023-04-03T17:36:00;10.50;68.70
57636;DHT22;43465;50.728;4.160;2023-04-03T17:38:27;10.50;70.00